Time;durP1;ratioP1;P1;durP2;ratioP2;P2;SDS_P1;SDS_P2;PMS_P1;PMS_P2;Temp;Humidity;BMP_temperature;BMP_pressure;BME280_temperature;BME280_humidity;BME280_pressure;Samples;Min_cycle;Max_cycle;Signal;HPM_P1;HPM_P2
2023/03/22 00:00:49;;;;;;;1122.75;78.40;;;12.10;99.90;;;;;;4907132;29;20052;-76
2023/03/22 00:03:15;;;;;;;1999.90;999.90;;;12.10;89.10;;;;;;4913108;29;20473;-82
2023/03/22 00:05:41;;;;;;;1999.90;999.90;;;12.10;99.90;;;;;;4912311;29;20059;-76
2023/03/22 00:08:07;;;;;;;1638.18;562.85;;;12.20;47.60;;;;;;4910975;29;20052;-77
2023/03/22 00:10:36;;;;;;;1650.03;580.08;;;12.30;99.90;;;;;;4912590;29;20418;-76
2023/03/22 00:13:02;;;;;;;1999.90;999.90;;;12.00;99.90;;;;;;4896984;29;20074;-76
2023/03/22 00:15:30;;;;;;;1871.00;793.42;;;12.00;10.20;;;;;;4912379;29;20048;-76
2023/03/22 00:17:57;;;;;;;1699.95;582.83;;;12.00;38.50;;;;;;4910385;29;20088;-77
2023/03/22 00:20:25;;;;;;;1838.15;781.03;;;12.10;1.00;;;;;;4909794;29;20056;-77
2023/03/22 00:22:51;;;;;;;1999.90;999.90;;;12.00;12.20;;;;;;4911809;29;20099;-76
2023/03/22 00:25:17;;;;;;;1999.90;999.90;;;12.00;8.80;;;;;;4910039;29;20063;-76
2023/03/22 00:27:43;;;;;;;1999.90;419.98;;;12.00;20.00;;;;;;4909414;29;20120;-81
2023/03/22 00:30:10;;;;;;;1999.90;821.20;;;12.00;1.00;;;;;;4909056;29;20131;-76
2023/03/22 00:32:37;;;;;;;1999.88;509.38;;;12.00;1.00;;;;;;4913376;29;20058;-77
2023/03/22 00:35:06;;;;;;;1842.43;644.97;;;11.90;80.10;;;;;;4913822;29;20052;-77
2023/03/22 00:37:33;;;;;;;1719.10;578.83;;;11.90;74.20;;;;;;4880937;29;20052;-76
2023/03/22 00:40:03;;;;;;;1802.72;566.40;;;11.80;99.90;;;;;;4911831;29;20045;-81
2023/03/22 00:42:29;;;;;;;1870.35;367.58;;;11.80;9.80;;;;;;4910618;29;20051;-76
2023/03/22 00:44:55;;;;;;;1999.90;999.90;;;11.90;1.00;;;;;;4896732;29;20090;-80
2023/03/22 00:47:22;;;;;;;1999.90;503.73;;;11.80;42.70;;;;;;4911398;29;20071;-76
2023/03/22 00:49:48;;;;;;;1484.95;355.30;;;11.80;1.00;;;;;;4895880;29;20074;-77
2023/03/22 00:52:14;;;;;;;1999.90;999.90;;;11.80;1.00;;;;;;4896248;29;20111;-78
2023/03/22 00:54:40;;;;;;;1632.38;568.75;;;11.80;1.00;;;;;;4911546;29;20469;-80
2023/03/22 00:57:05;;;;;;;1449.25;385.83;;;11.80;1.00;;;;;;4912044;29;20052;-84
2023/03/22 00:59:31;;;;;;;1878.20;774.92;;;11.80;1.00;;;;;;4908038;29;20100;-78
2023/03/22 01:01:57;;;;;;;1646.75;589.60;;;11.80;1.00;;;;;;4896057;29;20499;-78
2023/03/22 01:04:25;;;;;;;1745.45;332.08;;;11.70;1.00;;;;;;4911168;29;20060;-77
2023/03/22 01:06:58;;;;;;;1830.88;456.23;;;11.70;1.00;;;;;;4912117;29;20047;-78
2023/03/22 01:09:27;;;;;;;1560.80;366.85;;;11.70;1.00;;;;;;4911899;29;20058;-77
2023/03/22 01:11:53;;;;;;;1415.68;542.35;;;11.70;1.00;;;;;;4880474;29;20143;-77
2023/03/22 01:14:19;;;;;;;1568.18;568.42;;;11.50;1.00;;;;;;4910403;29;20063;-77
2023/03/22 01:16:45;;;;;;;1999.90;999.90;;;11.70;1.00;;;;;;4911817;29;20036;-77
2023/03/22 01:19:11;;;;;;;1751.93;619.72;;;11.70;1.00;;;;;;4895017;29;20376;-77
2023/03/22 01:21:36;;;;;;;1999.90;586.70;;;11.60;1.00;;;;;;4912926;29;20511;-80
2023/03/22 01:24:02;;;;;;;1999.90;999.90;;;11.60;1.00;;;;;;4910978;29;20108;-88
2023/03/22 01:26:28;;;;;;;1999.90;999.90;;;11.60;99.90;;;;;;4911440;29;20056;-81
2023/03/22 01:28:55;;;;;;;1999.90;999.90;;;11.60;1.00;;;;;;4910837;29;20047;-77
2023/03/22 01:31:20;;;;;;;1794.85;789.42;;;11.60;1.00;;;;;;4909253;29;20417;-84
2023/03/22 01:33:46;;;;;;;1240.97;158.75;;;11.60;1.00;;;;;;4893168;29;20044;-78
2023/03/22 01:36:12;;;;;;;1999.90;999.90;;;11.60;99.90;;;;;;4910855;29;20048;-77
2023/03/22 01:38:37;;;;;;;1845.35;772.13;;;11.60;99.90;;;;;;4909965;29;20048;-82
2023/03/22 01:41:04;;;;;;;1304.95;147.68;;;11.60;1.00;;;;;;4895527;29;20087;-81
2023/03/22 01:43:29;;;;;;;1999.90;999.90;;;11.50;1.00;;;;;;4911751;29;20047;-77
2023/03/22 01:45:56;;;;;;;1999.90;999.90;;;11.50;99.90;;;;;;4912041;29;20044;-77
2023/03/22 01:48:34;;;;;;;1999.90;999.90;;;11.50;1.00;;;;;;4911948;29;20056;-77
2023/03/22 01:51:10;;;;;;;1999.90;999.90;;;11.50;99.90;;;;;;4911515;29;20040;-77
2023/03/22 01:53:41;;;;;;;1999.90;999.90;;;11.40;1.00;;;;;;4910166;29;20113;-77
2023/03/22 01:56:08;;;;;;;1416.72;142.20;;;11.40;99.90;;;;;;4911871;29;20040;-77
2023/03/22 01:58:36;;;;;;;1999.90;999.90;;;11.50;99.90;;;;;;4893416;29;20079;-80
2023/03/22 02:01:04;;;;;;;1524.43;564.10;;;11.40;99.90;;;;;;4910864;29;20050;-77
2023/03/22 02:03:49;;;;;;;1880.47;776.80;;;11.40;99.90;;;;;;4911553;29;20131;-77
2023/03/22 02:06:16;;;;;;;1999.90;999.90;;;11.50;99.90;;;;;;4911226;29;20084;-77
2023/03/22 02:08:42;;;;;;;1744.32;420.60;;;11.50;99.90;;;;;;4906067;29;20052;-84
2023/03/22 02:11:14;;;;;;;1437.68;113.43;;;11.50;99.90;;;;;;4907947;29;20044;-77
2023/03/22 02:14:09;;;;;;;1474.45;181.05;;;12.30;99.90;;;;;;4909009;29;20557;-77
2023/03/22 02:17:11;;;;;;;1898.45;816.05;;;11.50;99.90;;;;;;4891201;29;20176;-77
2023/03/22 02:20:15;;;;;;;1999.90;364.48;;;11.40;99.90;;;;;;4905256;29;20516;-77
2023/03/22 02:23:12;;;;;;;1506.78;195.70;;;11.50;99.90;;;;;;4869026;29;20079;-78
2023/03/22 02:25:56;;;;;;;1664.35;591.97;;;11.50;99.90;;;;;;4863219;29;20124;-78
2023/03/22 02:28:22;;;;;;;1999.90;999.90;;;11.40;99.90;;;;;;4894662;29;20059;-77
2023/03/22 02:31:06;;;;;;;1999.90;999.90;;;11.40;99.90;;;;;;4908193;29;20045;-78
2023/03/22 02:33:44;;;;;;;1999.90;551.70;;;11.40;99.90;;;;;;4905749;29;20044;-77
2023/03/22 02:36:13;;;;;;;1918.80;446.60;;;11.40;99.90;;;;;;4903889;29;20100;-89
2023/03/22 02:39:05;;;;;;;1999.90;999.90;;;11.40;99.90;;;;;;4908875;29;20083;-85
2023/03/22 02:41:55;;;;;;;1337.35;159.93;;;11.50;99.90;;;;;;4903304;29;20059;-77
2023/03/22 02:44:30;;;;;;;1999.90;999.90;;;11.50;99.90;;;;;;4907851;29;20086;-77
2023/03/22 02:47:25;;;;;;;1999.90;999.90;;;11.50;99.90;;;;;;4904274;29;20059;-85
2023/03/22 02:50:00;;;;;;;1999.90;999.90;;;11.50;99.90;;;;;;4898708;29;20048;-78
2023/03/22 02:52:45;;;;;;;1999.90;999.90;;;11.70;99.90;;;;;;4923377;29;20507;-77
2023/03/22 02:55:16;;;;;;;1999.90;999.90;;;11.60;99.90;;;;;;4907633;29;20126;-77
2023/03/22 02:57:51;;;;;;;1999.90;999.90;;;11.60;99.90;;;;;;4904040;29;20044;-77
2023/03/22 03:00:18;;;;;;;1527.82;214.85;;;11.50;99.90;;;;;;4904854;29;20044;-77
2023/03/22 03:02:52;;;;;;;1999.90;671.72;;;11.50;99.90;;;;;;4920347;29;20104;-79
2023/03/22 03:05:20;;;;;;;1999.90;999.90;;;11.60;99.90;;;;;;4908280;29;20144;-77
2023/03/22 03:07:53;;;;;;;1999.90;999.90;;;11.60;99.90;;;;;;4906733;29;20581;-83
2023/03/22 03:10:20;;;;;;;1999.90;522.55;;;11.50;99.90;;;;;;4906160;29;20536;-78
2023/03/22 03:12:46;;;;;;;1308.68;111.28;;;11.60;99.90;;;;;;4907279;29;20048;-78
2023/03/22 03:15:17;;;;;;;1999.90;999.90;;;11.60;99.90;;;;;;4910547;29;20052;-83
2023/03/22 03:17:52;;;;;;;1999.90;999.90;;;11.60;99.90;;;;;;4908846;29;20044;-77
2023/03/22 03:21:01;;;;;;;1999.90;999.90;;;11.60;99.90;;;;;;4910579;29;20084;-81
2023/03/22 03:23:45;;;;;;;1763.93;389.23;;;11.50;99.90;;;;;;4873967;29;20052;-77
2023/03/22 03:26:45;;;;;;;1900.25;802.45;;;11.50;99.90;;;;;;4913946;29;20048;-77
2023/03/22 03:29:42;;;;;;;1999.90;999.90;;;11.50;99.90;;;;;;4913310;29;20148;-77
2023/03/22 03:32:15;;;;;;;1999.90;999.90;;;11.50;99.90;;;;;;4913556;29;20051;-77
2023/03/22 03:34:48;;;;;;;1651.57;421.80;;;11.50;99.90;;;;;;4913543;29;20055;-77
2023/03/22 03:37:23;;;;;;;1999.90;999.90;;;11.50;99.90;;;;;;4914951;29;20059;-77
2023/03/22 03:39:57;;;;;;;1999.90;409.75;;;11.50;99.90;;;;;;4914540;29;20059;-77
2023/03/22 03:42:27;;;;;;;1999.90;457.83;;;9.50;99.90;;;;;;4910252;29;20055;-78
2023/03/22 03:44:54;;;;;;;1999.90;448.50;;;11.50;99.90;;;;;;4911878;29;20618;-79
2023/03/22 03:47:21;;;;;;;1755.68;244.30;;;11.50;99.90;;;;;;4911521;29;20059;-78
2023/03/22 03:49:47;;;;;;;1999.90;999.90;;;11.50;99.90;;;;;;4915971;29;20052;-77
2023/03/22 03:52:13;;;;;;;1999.90;999.90;;;11.50;99.90;;;;;;4914908;29;20495;-77
2023/03/22 03:54:39;;;;;;;1999.90;550.88;;;11.50;99.90;;;;;;4913839;29;20059;-77
2023/03/22 03:57:05;;;;;;;1808.63;600.05;;;11.50;99.90;;;;;;4913922;29;20493;-77
2023/03/22 03:59:31;;;;;;;1673.38;190.38;;;11.50;99.90;;;;;;4912962;29;20036;-78
2023/03/22 04:01:56;;;;;;;1881.68;610.35;;;11.50;99.90;;;;;;4914345;29;20044;-77
2023/03/22 04:04:25;;;;;;;1999.90;501.55;;;12.10;99.90;;;;;;4914209;29;20044;-77
2023/03/22 04:06:56;;;;;;;1936.78;656.10;;;11.50;99.90;;;;;;4911624;29;20078;-77
2023/03/22 04:09:27;;;;;;;1999.90;999.90;;;11.80;99.90;;;;;;4911089;29;20051;-80
2023/03/22 04:11:54;;;;;;;1540.15;539.72;;;11.50;99.90;;;;;;4913814;29;20123;-77
2023/03/22 04:14:20;;;;;;;1999.90;999.90;;;11.50;99.90;;;;;;4912649;29;20044;-77
2023/03/22 04:16:46;;;;;;;1999.90;999.90;;;11.50;99.90;;;;;;4911159;29;20099;-77
2023/03/22 04:19:12;;;;;;;1575.20;552.42;;;11.50;99.90;;;;;;4911783;29;20044;-77
2023/03/22 04:21:38;;;;;;;1670.75;404.67;;;11.50;99.90;;;;;;4914969;29;20044;-77
2023/03/22 04:24:04;;;;;;;1999.05;711.20;;;11.60;99.90;;;;;;4895890;29;20064;-84
2023/03/22 04:26:30;;;;;;;1575.47;400.92;;;11.50;99.90;;;;;;4911289;29;20543;-77
2023/03/22 04:28:57;;;;;;;1816.38;596.22;;;11.50;99.90;;;;;;4896600;29;20040;-77
2023/03/22 04:31:26;;;;;;;1665.03;184.63;;;11.50;99.90;;;;;;4909195;29;20054;-77
2023/03/22 04:33:53;;;;;;;1709.82;784.80;;;11.50;99.90;;;;;;4910043;29;20561;-81
2023/03/22 04:36:23;;;;;;;1999.90;999.90;;;11.50;99.90;;;;;;4896389;29;20056;-77
2023/03/22 04:38:50;;;;;;;988.15;84.65;;;11.50;99.90;;;;;;4912004;29;20040;-85
2023/03/22 04:41:17;;;;;;;1724.38;575.15;;;11.50;99.90;;;;;;4913658;29;21484;-81
2023/03/22 04:43:45;;;;;;;1469.57;370.88;;;11.50;99.90;;;;;;4910998;29;20044;-77
2023/03/22 04:46:12;;;;;;;1999.90;999.90;;;11.60;99.90;;;;;;4910365;29;20075;-77
2023/03/22 04:48:40;;;;;;;1203.70;335.58;;;11.60;99.90;;;;;;4913227;29;20052;-77
2023/03/22 04:51:07;;;;;;;1999.90;999.90;;;11.60;99.90;;;;;;4910482;29;20503;-78
2023/03/22 04:53:37;;;;;;;1999.90;999.90;;;11.60;99.90;;;;;;4912819;29;20040;-77
2023/03/22 04:56:13;;;;;;;1732.65;585.40;;;11.60;99.90;;;;;;4911774;29;20131;-77
2023/03/22 04:58:41;;;;;;;1999.90;999.90;;;11.60;99.90;;;;;;4913975;29;20032;-77
2023/03/22 05:01:08;;;;;;;1999.90;999.90;;;11.60;99.90;;;;;;4910464;29;20054;-77
2023/03/22 05:03:35;;;;;;;1999.90;999.90;;;11.60;99.90;;;;;;4894918;29;20505;-79
2023/03/22 05:06:02;;;;;;;1999.90;999.90;;;11.60;99.90;;;;;;4912215;29;20400;-78
2023/03/22 05:08:29;;;;;;;1919.57;805.88;;;11.70;99.90;;;;;;4913469;29;20047;-78
2023/03/22 05:10:57;;;;;;;1999.90;805.50;;;11.70;99.90;;;;;;4910942;29;20131;-77
2023/03/22 05:13:25;;;;;;;1999.90;999.90;;;11.70;99.90;;;;;;4896963;29;20052;-84
2023/03/22 05:15:51;;;;;;;1999.90;999.90;;;11.70;99.90;;;;;;4911833;29;20056;-78
2023/03/22 05:18:19;;;;;;;1772.65;601.40;;;11.70;99.90;;;;;;4913036;29;20040;-77
2023/03/22 05:20:46;;;;;;;1999.90;999.90;;;11.70;99.90;;;;;;4909734;29;20388;-77
2023/03/22 05:23:17;;;;;;;1999.90;999.90;;;11.70;99.90;;;;;;4914197;29;20040;-77
2023/03/22 05:25:45;;;;;;;1366.03;536.72;;;11.80;99.90;;;;;;4910338;29;20472;-78
2023/03/22 05:28:13;;;;;;;1737.32;776.03;;;11.80;99.90;;;;;;4909797;29;20066;-83
2023/03/22 05:30:40;;;;;;;1863.05;781.55;;;11.60;99.90;;;;;;4908858;29;20044;-81
2023/03/22 05:33:07;;;;;;;1897.45;791.97;;;11.80;99.90;;;;;;4913115;29;20058;-80
2023/03/22 05:35:35;;;;;;;1362.90;168.98;;;11.80;99.90;;;;;;4907558;29;20088;-84
2023/03/22 05:38:00;;;;;;;1969.25;341.98;;;11.80;99.90;;;;;;4910690;29;20130;-80
2023/03/22 05:40:26;;;;;;;1999.90;843.47;;;11.80;99.90;;;;;;4911662;29;20075;-82
2023/03/22 05:42:54;;;;;;;1999.90;999.90;;;11.80;99.90;;;;;;4910888;29;20109;-80
2023/03/22 05:45:20;;;;;;;1999.90;999.90;;;11.80;99.90;;;;;;4908428;29;20058;-80
2023/03/22 05:47:46;;;;;;;1999.90;999.90;;;11.70;99.90;;;;;;4913836;29;20056;-80
2023/03/22 05:50:15;;;;;;;1999.90;834.05;;;11.70;99.90;;;;;;4916828;29;20052;-80
2023/03/22 05:52:43;;;;;;;1413.40;173.82;;;11.70;99.90;;;;;;4914181;29;20504;-80
2023/03/22 05:55:11;;;;;;;1999.90;999.90;;;11.70;99.90;;;;;;4913380;29;20500;-80
2023/03/22 05:57:37;;;;;;;;;;;11.70;99.90;;;;;;4912053;29;20050;-84
2023/03/22 06:00:05;;;;;;;1999.90;999.90;;;11.70;99.90;;;;;;4909882;29;20005;-80
2023/03/22 06:02:31;;;;;;;1999.90;999.90;;;11.70;99.90;;;;;;4913957;29;20135;-80
2023/03/22 06:04:57;;;;;;;1999.90;319.38;;;11.70;99.90;;;;;;4897833;29;20472;-81
2023/03/22 06:07:24;;;;;;;1898.03;585.97;;;11.80;99.90;;;;;;4911662;29;20091;-79
2023/03/22 06:09:49;;;;;;;1999.90;664.17;;;11.70;99.90;;;;;;4881387;29;20056;-79
2023/03/22 06:12:16;;;;;;;1909.97;399.92;;;11.70;99.90;;;;;;4913066;29;20051;-80
2023/03/22 06:14:41;;;;;;;1297.50;325.88;;;11.70;99.90;;;;;;4914073;29;20047;-81
2023/03/22 06:17:08;;;;;;;1999.90;999.90;;;11.70;99.90;;;;;;4893026;29;20139;-81
2023/03/22 06:19:34;;;;;;;1744.88;778.53;;;11.70;99.90;;;;;;4911503;29;20052;-81
2023/03/22 06:21:59;;;;;;;1999.90;642.65;;;11.70;99.90;;;;;;4910186;29;20047;-80
2023/03/22 06:24:25;;;;;;;1999.90;999.90;;;11.70;99.90;;;;;;4906463;29;20112;-81
2023/03/22 06:26:51;;;;;;;1989.72;614.80;;;11.70;99.90;;;;;;4909836;29;20052;-80
2023/03/22 06:29:17;;;;;;;1939.70;631.65;;;11.80;99.90;;;;;;4912089;29;20096;-81
2023/03/22 06:31:42;;;;;;;1999.90;999.90;;;11.80;99.90;;;;;;4905055;29;20086;-85
2023/03/22 06:34:08;;;;;;;1769.15;582.63;;;11.80;99.90;;;;;;4907810;29;20048;-81
2023/03/22 06:36:34;;;;;;;1999.90;999.90;;;11.90;99.90;;;;;;4906735;29;20555;-79
2023/03/22 06:39:01;;;;;;;1999.90;999.90;;;11.70;99.90;;;;;;4914084;29;20057;-80
2023/03/22 06:41:27;;;;;;;1999.90;999.90;;;11.90;99.90;;;;;;4911802;29;20051;-81
2023/03/22 06:43:52;;;;;;;1658.05;576.85;;;11.90;99.90;;;;;;4910002;29;20048;-83
2023/03/22 06:46:18;;;;;;;1999.90;999.90;;;11.90;99.90;;;;;;4907849;29;20953;-81
2023/03/22 06:48:44;;;;;;;1609.82;551.33;;;12.00;99.90;;;;;;4913395;29;20509;-80
2023/03/22 06:51:09;;;;;;;870.28;83.20;;;12.00;99.90;;;;;;4914850;29;20127;-80
2023/03/22 06:53:35;;;;;;;1094.53;101.03;;;12.10;99.90;;;;;;4910030;29;20055;-81
2023/03/22 06:56:01;;;;;;;1467.45;535.75;;;12.20;99.90;;;;;;4911205;29;20075;-80
2023/03/22 06:58:26;;;;;;;1999.90;999.90;;;12.20;99.90;;;;;;4906131;29;20048;-82
2023/03/22 07:00:54;;;;;;;1999.90;999.90;;;12.20;99.90;;;;;;4908747;29;20047;-82
2023/03/22 07:03:20;;;;;;;;;;;12.20;99.90;;;;;;4908087;29;20408;-81
2023/03/22 07:05:46;;;;;;;538.72;60.50;;;12.20;99.90;;;;;;4910720;29;19931;-86
2023/03/22 07:08:12;;;;;;;1999.90;999.90;;;12.30;99.90;;;;;;4911164;29;20044;-80
2023/03/22 07:10:37;;;;;;;1622.78;565.80;;;12.30;99.90;;;;;;4909940;29;20041;-80
2023/03/22 07:13:03;;;;;;;1109.57;309.70;;;12.40;99.90;;;;;;4914276;29;20083;-81
2023/03/22 07:15:29;;;;;;;1999.90;157.73;;;12.50;99.90;;;;;;4911259;29;21289;-80
2023/03/22 07:17:55;;;;;;;1251.25;148.25;;;12.60;99.90;;;;;;4914281;29;20040;-81
2023/03/22 07:20:21;;;;;;;1020.00;109.05;;;12.70;99.90;;;;;;4913103;29;20048;-80
2023/03/22 07:22:49;;;;;;;1999.90;999.90;;;12.70;99.90;;;;;;4911303;29;20048;-84
2023/03/22 07:25:15;;;;;;;1566.50;558.78;;;12.60;99.90;;;;;;4909644;29;20044;-80
2023/03/22 07:27:41;;;;;;;1149.90;516.65;;;12.50;99.90;;;;;;4896834;29;20087;-80
2023/03/22 07:30:07;;;;;;;1999.90;999.90;;;12.50;99.90;;;;;;4912248;29;20397;-82
2023/03/22 07:32:33;;;;;;;1999.90;999.90;;;12.50;99.90;;;;;;4912958;29;20051;-81
2023/03/22 07:34:58;;;;;;;1999.90;999.90;;;12.50;99.90;;;;;;4896779;29;20036;-81
2023/03/22 07:37:24;;;;;;;1999.90;999.90;;;12.60;99.90;;;;;;4913047;29;20541;-80
2023/03/22 07:39:50;;;;;;;1999.90;999.90;;;12.60;99.90;;;;;;4894918;29;20076;-82
2023/03/22 07:42:15;;;;;;;1999.90;999.90;;;12.60;99.90;;;;;;4895953;29;20438;-80
2023/03/22 07:44:41;;;;;;;1999.90;999.90;;;12.50;99.90;;;;;;4913808;29;20052;-80
2023/03/22 07:47:07;;;;;;;1999.90;999.90;;;12.50;99.90;;;;;;4915117;29;20091;-80
2023/03/22 07:49:33;;;;;;;1999.90;999.90;;;12.50;99.90;;;;;;4913981;29;20048;-81
2023/03/22 07:51:59;;;;;;;1999.90;999.90;;;12.50;99.90;;;;;;4915289;29;20091;-80
2023/03/22 07:54:24;;;;;;;1999.90;999.90;;;12.50;93.20;;;;;;4914387;29;20067;-80
2023/03/22 07:56:50;;;;;;;1999.90;999.90;;;12.60;90.10;;;;;;4914368;29;20048;-83
2023/03/22 07:59:16;;;;;;;1999.90;999.90;;;12.60;54.60;;;;;;4911639;29;20040;-81
2023/03/22 08:01:45;;;;;;;1999.90;999.90;;;12.50;53.90;;;;;;4909078;29;20122;-82
2023/03/22 08:04:11;;;;;;;1999.90;999.90;;;12.70;20.00;;;;;;4910414;29;20073;-80
2023/03/22 08:06:39;;;;;;;1999.90;999.90;;;12.60;30.90;;;;;;4914306;29;20089;-80
2023/03/22 08:09:07;;;;;;;1999.90;999.90;;;12.50;17.70;;;;;;4902807;29;20268;-80
2023/03/22 08:11:33;;;;;;;1999.90;999.90;;;12.60;6.30;;;;;;4916748;29;20052;-81
2023/03/22 08:13:58;;;;;;;1999.90;999.90;;;13.10;1.00;;;;;;4918279;29;20055;-81
2023/03/22 08:16:24;;;;;;;1999.90;999.90;;;13.20;1.00;;;;;;4916645;29;20091;-81
2023/03/22 08:18:50;;;;;;;1999.90;999.90;;;13.30;1.00;;;;;;4917705;29;20044;-81
2023/03/22 08:21:16;;;;;;;1999.90;999.90;;;13.20;1.00;;;;;;4925176;29;20060;-82
2023/03/22 08:23:41;;;;;;;1999.90;999.90;;;13.20;1.00;;;;;;4924171;29;20114;-81
2023/03/22 08:26:08;;;;;;;1999.90;999.90;;;13.10;1.00;;;;;;4918499;29;20058;-81
2023/03/22 08:28:34;;;;;;;1999.90;999.90;;;13.00;1.00;;;;;;4916104;29;20622;-81
2023/03/22 08:31:00;;;;;;;1999.90;999.90;;;13.00;1.00;;;;;;4922865;29;20081;-80
2023/03/22 08:33:26;;;;;;;1999.90;999.90;;;12.90;1.00;;;;;;4916083;29;20052;-85
2023/03/22 08:36:07;;;;;;;1999.90;999.90;;;12.90;1.00;;;;;;4914182;29;20204;-80
2023/03/22 08:38:33;;;;;;;1407.35;515.78;;;13.00;1.00;;;;;;4916853;29;20139;-80
2023/03/22 08:40:58;;;;;;;1022.13;53.45;;;13.00;1.00;;;;;;4915263;29;20100;-79
2023/03/22 08:43:24;;;;;;;1999.90;999.90;;;13.00;1.00;;;;;;4917589;29;20063;-81
2023/03/22 08:45:49;;;;;;;1999.90;999.90;;;13.20;1.00;;;;;;4916061;29;20083;-81
2023/03/22 08:48:15;;;;;;;1999.90;999.90;;;13.30;1.00;;;;;;4924248;29;20682;-80
2023/03/22 08:50:41;;;;;;;1999.90;999.90;;;13.50;1.00;;;;;;4918979;29;20064;-80
2023/03/22 08:53:07;;;;;;;1999.90;999.90;;;13.60;1.00;;;;;;4923376;29;20473;-80
2023/03/22 08:55:34;;;;;;;1999.90;999.90;;;13.70;1.00;;;;;;4915556;29;20056;-84
2023/03/22 08:58:00;;;;;;;1999.90;999.90;;;13.50;1.00;;;;;;4913487;29;20501;-83
2023/03/22 09:00:26;;;;;;;1999.90;999.90;;;13.40;1.00;;;;;;4916923;29;20075;-83
2023/03/22 09:02:52;;;;;;;1999.90;999.90;;;13.40;1.00;;;;;;4895754;29;20076;-84
2023/03/22 09:05:18;;;;;;;1999.90;999.90;;;13.40;1.00;;;;;;4916722;29;20063;-84
2023/03/22 09:07:44;;;;;;;1999.90;999.90;;;13.40;1.00;;;;;;4918649;29;20083;-84
2023/03/22 09:10:10;;;;;;;1999.90;999.90;;;13.50;1.00;;;;;;4914284;29;20044;-83
2023/03/22 09:12:36;;;;;;;1999.90;999.90;;;13.50;1.00;;;;;;4913741;29;20054;-82
2023/03/22 09:15:03;;;;;;;1999.90;999.90;;;13.50;1.00;;;;;;4913830;29;20044;-83
2023/03/22 09:17:29;;;;;;;1999.90;999.90;;;13.50;1.00;;;;;;4915025;29;20052;-82
2023/03/22 09:19:54;;;;;;;1999.90;999.90;;;13.40;1.00;;;;;;4915458;29;20048;-86
2023/03/22 09:22:20;;;;;;;1999.90;999.90;;;13.40;1.00;;;;;;4916282;29;20492;-81
2023/03/22 09:24:46;;;;;;;1999.90;999.90;;;13.30;1.00;;;;;;4925768;29;20130;-81
2023/03/22 09:27:11;;;;;;;1347.63;105.93;;;13.30;1.00;;;;;;4933064;29;20466;-86
2023/03/22 09:29:37;;;;;;;1999.90;999.90;;;13.30;1.00;;;;;;4914962;29;20059;-83
2023/03/22 09:32:03;;;;;;;1999.90;999.90;;;13.30;1.00;;;;;;4914885;29;20123;-82
2023/03/22 09:34:29;;;;;;;1999.90;999.90;;;13.20;1.00;;;;;;4919425;29;20043;-83
2023/03/22 09:36:57;;;;;;;1999.90;999.90;;;13.20;1.00;;;;;;4902910;29;20114;-84
2023/03/22 09:39:23;;;;;;;;;;;13.20;1.00;;;;;;4913872;29;20508;-84
2023/03/22 09:41:53;;;;;;;1999.90;999.90;;;13.20;1.00;;;;;;4899558;29;19939;-84
2023/03/22 09:44:30;;;;;;;1999.90;999.90;;;13.20;1.00;;;;;;4917853;29;20051;-84
2023/03/22 09:46:59;;;;;;;1999.90;999.90;;;13.20;1.00;;;;;;4921508;29;20044;-83
2023/03/22 09:49:32;;;;;;;1999.90;999.90;;;13.20;1.00;;;;;;4907742;29;20048;-85
2023/03/22 09:51:58;;;;;;;1999.90;999.90;;;13.10;1.00;;;;;;4913789;29;20055;-84
2023/03/22 09:54:34;;;;;;;1999.90;999.90;;;13.00;1.00;;;;;;4914231;29;20064;-84
2023/03/22 09:57:08;;;;;;;1999.90;999.90;;;12.90;29.70;;;;;;4916520;29;20048;-84
2023/03/22 10:00:10;;;;;;;1999.90;999.90;;;12.90;14.90;;;;;;4912226;29;20048;-85
2023/03/22 10:02:44;;;;;;;1999.90;999.90;;;12.80;14.40;;;;;;4913160;29;20471;-84
2023/03/22 10:05:16;;;;;;;1999.90;999.90;;;12.80;1.00;;;;;;4915256;29;20103;-84
2023/03/22 10:07:51;;;;;;;1999.90;999.90;;;12.70;4.70;;;;;;4897417;29;20445;-84
2023/03/22 10:10:22;;;;;;;1999.90;999.90;;;12.70;2.00;;;;;;4903475;29;21498;-84
2023/03/22 10:13:18;;;;;;;1999.90;999.90;;;12.70;92.90;;;;;;4916552;29;20051;-85
2023/03/22 10:16:05;;;;;;;1952.28;533.15;;;12.60;88.10;;;;;;4915794;29;20414;-83
2023/03/22 10:18:45;;;;;;;1999.90;999.90;;;12.60;98.30;;;;;;4914375;29;20047;-83
2023/03/22 10:21:14;;;;;;;1999.90;999.90;;;12.50;99.90;;;;;;4913190;29;20044;-84
2023/03/22 10:23:59;;;;;;;1999.90;999.90;;;12.40;99.90;;;;;;4912868;29;20079;-87
2023/03/22 10:26:28;;;;;;;1999.90;999.90;;;12.40;99.90;;;;;;4915598;29;20056;-85
2023/03/22 10:29:02;;;;;;;1935.45;529.17;;;12.40;99.90;;;;;;4914997;29;20170;-83
2023/03/22 10:31:29;;;;;;;1999.90;999.90;;;12.40;99.90;;;;;;4913082;29;20044;-86
2023/03/22 10:34:05;;;;;;;1999.90;999.90;;;12.40;99.90;;;;;;4916539;29;20066;-85
2023/03/22 10:36:35;;;;;;;1999.90;999.90;;;12.40;99.90;;;;;;4898402;29;20059;-84
2023/03/22 10:39:31;;;;;;;1999.90;999.90;;;12.40;99.90;;;;;;4915054;29;20497;-85
2023/03/22 10:42:00;;;;;;;1999.90;999.90;;;12.40;1.00;;;;;;4898547;29;20063;-84
2023/03/22 10:44:36;;;;;;;1843.32;567.05;;;12.30;1.00;;;;;;4916015;29;20092;-85
2023/03/22 10:47:06;;;;;;;1999.90;178.73;;;12.20;99.90;;;;;;4914293;29;20058;-85
2023/03/22 10:49:43;;;;;;;1999.90;999.90;;;11.90;1.00;;;;;;4914721;29;20458;-85
2023/03/22 10:52:25;;;;;;;1843.97;780.50;;;11.90;99.90;;;;;;4913472;29;20154;-85
2023/03/22 10:54:51;;;;;;;1775.18;768.35;;;12.00;99.90;;;;;;4899597;29;20404;-86
2023/03/22 10:57:17;;;;;;;1999.90;999.90;;;12.50;1.00;;;;;;4909744;29;20135;-86
2023/03/22 10:59:50;;;;;;;1999.90;999.90;;;12.10;1.00;;;;;;4897934;29;20044;-84
2023/03/22 11:02:27;;;;;;;1999.90;999.90;;;12.60;99.90;;;;;;4913515;29;20055;-84
2023/03/22 11:04:57;;;;;;;1999.90;629.72;;;12.60;99.90;;;;;;4921052;29;20054;-84
2023/03/22 11:07:43;;;;;;;1613.93;551.80;;;13.00;99.90;;;;;;4922881;29;20143;-83
2023/03/22 11:10:09;;;;;;;1999.90;567.75;;;12.40;99.90;;;;;;4920587;29;20059;-82
2023/03/22 11:13:09;;;;;;;1999.90;792.00;;;12.50;99.90;;;;;;4904930;29;20040;-79
2023/03/22 11:15:39;;;;;;;1999.90;999.90;;;11.80;99.90;;;;;;4923117;29;20378;-78
2023/03/22 11:18:16;;;;;;;1999.90;999.90;;;12.00;99.90;;;;;;4912802;29;20428;-79
2023/03/22 11:20:54;;;;;;;1312.32;532.40;;;12.70;99.90;;;;;;4919319;29;20067;-79
2023/03/22 11:23:21;;;;;;;1751.82;556.67;;;11.90;99.90;;;;;;4918953;29;20043;-79
2023/03/22 11:25:48;;;;;;;1719.47;550.17;;;12.80;99.90;;;;;;4915878;29;20438;-78
2023/03/22 11:28:21;;;;;;;1999.90;999.90;;;12.10;99.90;;;;;;4925885;29;20433;-78
2023/03/22 11:31:09;;;;;;;1999.90;999.90;;;12.80;99.90;;;;;;4928351;29;20056;-79
2023/03/22 11:33:36;;;;;;;1800.28;766.67;;;12.60;99.90;;;;;;4915723;29;20063;-79
2023/03/22 11:36:17;;;;;;;1814.15;568.28;;;12.90;99.90;;;;;;4917337;29;20493;-78
2023/03/22 11:38:42;;;;;;;1999.90;999.90;;;12.50;99.90;;;;;;4914362;29;20100;-78
2023/03/22 11:41:26;;;;;;;1766.32;771.10;;;12.20;99.90;;;;;;4904839;29;20467;-81
2023/03/22 11:44:13;;;;;;;1999.90;999.90;;;12.80;99.90;;;;;;4915711;29;20055;-78
2023/03/22 11:46:47;;;;;;;1999.90;999.90;;;12.30;99.90;;;;;;4916522;29;20060;-79
2023/03/22 11:49:15;;;;;;;1999.90;999.90;;;12.70;99.90;;;;;;4915455;29;20405;-80
2023/03/22 11:51:42;;;;;;;1999.90;999.90;;;12.50;99.90;;;;;;4914312;29;20040;-79
2023/03/22 11:54:14;;;;;;;1999.90;999.90;;;12.30;99.90;;;;;;4909150;29;20056;-78
2023/03/22 11:56:44;;;;;;;1368.93;543.10;;;12.70;99.90;;;;;;4913309;29;20132;-82
2023/03/22 11:59:24;;;;;;;1999.90;999.90;;;12.40;99.90;;;;;;4914740;29;20042;-78
2023/03/22 12:02:04;;;;;;;1709.95;775.05;;;12.70;99.90;;;;;;4909633;29;21098;-78
2023/03/22 12:04:34;;;;;;;1848.78;777.47;;;12.30;99.90;;;;;;4913560;29;20501;-78
2023/03/22 12:07:05;;;;;;;1785.13;774.35;;;12.30;99.90;;;;;;4910850;29;20096;-78
2023/03/22 12:09:50;;;;;;;1999.90;999.90;;;12.20;99.90;;;;;;4915345;29;20473;-79
2023/03/22 12:12:20;;;;;;;1876.05;569.97;;;12.40;99.90;;;;;;4896069;29;20575;-83
2023/03/22 12:14:56;;;;;;;1999.90;580.42;;;12.30;99.90;;;;;;4915134;29;20044;-78
2023/03/22 12:17:43;;;;;;;1600.68;547.72;;;12.20;99.90;;;;;;4911197;29;20048;-78